sensor_id;sensor_type;location;lat;lon;timestamp;P1;durP1;ratioP1;P2;durP2;ratioP2
50671;SDS011;46021;55.882;37.654;2023-07-28T00:02:03;18.92;;;12.85;;
50671;SDS011;46021;55.882;37.654;2023-07-28T00:04:30;17.50;;;12.90;;
50671;SDS011;46021;55.882;37.654;2023-07-28T00:06:57;21.92;;;16.15;;
50671;SDS011;46021;55.882;37.654;2023-07-28T00:09:24;18.73;;;13.50;;
50671;SDS011;46021;55.882;37.654;2023-07-28T00:11:51;19.13;;;14.43;;
50671;SDS011;46021;55.882;37.654;2023-07-28T00:14:18;17.90;;;13.43;;
50671;SDS011;46021;55.882;37.654;2023-07-28T00:16:45;17.95;;;13.68;;
50671;SDS011;46021;55.882;37.654;2023-07-28T00:19:14;20.10;;;14.32;;
50671;SDS011;46021;55.882;37.654;2023-07-28T00:21:41;18.13;;;13.45;;
50671;SDS011;46021;55.882;37.654;2023-07-28T00:24:07;18.10;;;13.70;;
50671;SDS011;46021;55.882;37.654;2023-07-28T00:26:34;29.83;;;13.70;;
50671;SDS011;46021;55.882;37.654;2023-07-28T00:29:01;17.63;;;13.18;;
50671;SDS011;46021;55.882;37.654;2023-07-28T00:31:31;18.15;;;13.00;;
50671;SDS011;46021;55.882;37.654;2023-07-28T00:33:58;18.25;;;13.48;;
50671;SDS011;46021;55.882;37.654;2023-07-28T00:36:27;22.15;;;13.27;;
50671;SDS011;46021;55.882;37.654;2023-07-28T00:38:54;22.58;;;14.63;;
50671;SDS011;46021;55.882;37.654;2023-07-28T00:41:22;19.30;;;13.57;;
50671;SDS011;46021;55.882;37.654;2023-07-28T00:43:49;17.13;;;13.25;;
50671;SDS011;46021;55.882;37.654;2023-07-28T00:46:16;23.83;;;14.43;;
50671;SDS011;46021;55.882;37.654;2023-07-28T00:48:43;18.15;;;12.82;;
50671;SDS011;46021;55.882;37.654;2023-07-28T00:51:11;19.50;;;13.80;;
50671;SDS011;46021;55.882;37.654;2023-07-28T00:53:39;19.92;;;13.95;;
50671;SDS011;46021;55.882;37.654;2023-07-28T00:56:07;19.13;;;12.45;;
50671;SDS011;46021;55.882;37.654;2023-07-28T00:58:34;18.35;;;12.40;;
50671;SDS011;46021;55.882;37.654;2023-07-28T01:01:01;21.02;;;12.52;;
50671;SDS011;46021;55.882;37.654;2023-07-28T01:03:28;19.65;;;12.50;;
50671;SDS011;46021;55.882;37.654;2023-07-28T01:05:59;20.55;;;13.52;;
50671;SDS011;46021;55.882;37.654;2023-07-28T01:08:48;19.20;;;12.65;;
50671;SDS011;46021;55.882;37.654;2023-07-28T01:11:20;16.90;;;12.25;;
50671;SDS011;46021;55.882;37.654;2023-07-28T01:13:47;19.60;;;12.68;;
50671;SDS011;46021;55.882;37.654;2023-07-28T01:16:14;20.13;;;13.90;;
50671;SDS011;46021;55.882;37.654;2023-07-28T01:18:41;20.50;;;13.43;;
50671;SDS011;46021;55.882;37.654;2023-07-28T01:21:09;17.50;;;13.02;;
50671;SDS011;46021;55.882;37.654;2023-07-28T01:23:41;25.42;;;14.88;;
50671;SDS011;46021;55.882;37.654;2023-07-28T01:26:25;18.30;;;12.77;;
50671;SDS011;46021;55.882;37.654;2023-07-28T01:28:53;17.85;;;12.80;;
50671;SDS011;46021;55.882;37.654;2023-07-28T01:31:21;16.33;;;12.30;;
50671;SDS011;46021;55.882;37.654;2023-07-28T01:33:48;18.08;;;13.85;;
50671;SDS011;46021;55.882;37.654;2023-07-28T01:36:15;18.83;;;12.15;;
50671;SDS011;46021;55.882;37.654;2023-07-28T01:38:42;20.67;;;13.05;;
50671;SDS011;46021;55.882;37.654;2023-07-28T01:41:09;17.80;;;12.35;;
50671;SDS011;46021;55.882;37.654;2023-07-28T01:43:37;19.75;;;13.45;;
50671;SDS011;46021;55.882;37.654;2023-07-28T01:46:04;18.80;;;13.15;;
50671;SDS011;46021;55.882;37.654;2023-07-28T01:48:31;17.98;;;13.23;;
50671;SDS011;46021;55.882;37.654;2023-07-28T01:50:58;20.65;;;12.95;;
50671;SDS011;46021;55.882;37.654;2023-07-28T01:53:25;18.35;;;12.82;;
50671;SDS011;46021;55.882;37.654;2023-07-28T01:55:52;18.35;;;12.77;;
50671;SDS011;46021;55.882;37.654;2023-07-28T01:58:19;20.85;;;12.48;;
50671;SDS011;46021;55.882;37.654;2023-07-28T02:00:47;18.40;;;12.88;;
50671;SDS011;46021;55.882;37.654;2023-07-28T02:03:14;18.02;;;12.70;;
50671;SDS011;46021;55.882;37.654;2023-07-28T02:05:41;18.45;;;12.82;;
50671;SDS011;46021;55.882;37.654;2023-07-28T02:08:09;19.48;;;13.02;;
50671;SDS011;46021;55.882;37.654;2023-07-28T02:10:37;21.67;;;13.20;;
50671;SDS011;46021;55.882;37.654;2023-07-28T02:13:05;21.25;;;14.40;;
50671;SDS011;46021;55.882;37.654;2023-07-28T02:15:31;28.92;;;15.15;;
50671;SDS011;46021;55.882;37.654;2023-07-28T02:18:00;18.48;;;13.50;;
50671;SDS011;46021;55.882;37.654;2023-07-28T02:20:28;19.67;;;13.48;;
50671;SDS011;46021;55.882;37.654;2023-07-28T02:22:54;18.27;;;12.32;;
50671;SDS011;46021;55.882;37.654;2023-07-28T02:25:22;16.30;;;12.45;;
50671;SDS011;46021;55.882;37.654;2023-07-28T02:27:49;18.05;;;12.10;;
50671;SDS011;46021;55.882;37.654;2023-07-28T02:30:16;18.48;;;12.00;;
50671;SDS011;46021;55.882;37.654;2023-07-28T02:32:43;18.58;;;13.18;;
50671;SDS011;46021;55.882;37.654;2023-07-28T02:35:12;19.75;;;12.80;;
50671;SDS011;46021;55.882;37.654;2023-07-28T02:37:39;20.42;;;13.73;;
50671;SDS011;46021;55.882;37.654;2023-07-28T02:42:34;20.75;;;14.25;;
50671;SDS011;46021;55.882;37.654;2023-07-28T02:45:01;19.20;;;13.52;;
50671;SDS011;46021;55.882;37.654;2023-07-28T02:47:28;18.90;;;12.65;;
50671;SDS011;46021;55.882;37.654;2023-07-28T02:49:55;23.00;;;13.65;;
50671;SDS011;46021;55.882;37.654;2023-07-28T02:54:51;20.93;;;13.37;;
50671;SDS011;46021;55.882;37.654;2023-07-28T02:57:18;19.63;;;13.45;;
50671;SDS011;46021;55.882;37.654;2023-07-28T02:59:47;22.55;;;13.68;;
50671;SDS011;46021;55.882;37.654;2023-07-28T03:04:41;19.70;;;13.23;;
50671;SDS011;46021;55.882;37.654;2023-07-28T03:07:30;18.95;;;13.07;;
50671;SDS011;46021;55.882;37.654;2023-07-28T03:10:01;19.90;;;13.60;;
50671;SDS011;46021;55.882;37.654;2023-07-28T03:12:30;17.73;;;12.25;;
50671;SDS011;46021;55.882;37.654;2023-07-28T03:14:57;18.10;;;12.63;;
50671;SDS011;46021;55.882;37.654;2023-07-28T03:17:24;18.77;;;12.43;;
50671;SDS011;46021;55.882;37.654;2023-07-28T03:19:51;18.60;;;11.88;;
50671;SDS011;46021;55.882;37.654;2023-07-28T03:22:18;20.23;;;13.70;;
50671;SDS011;46021;55.882;37.654;2023-07-28T03:24:46;25.45;;;15.63;;
50671;SDS011;46021;55.882;37.654;2023-07-28T03:27:13;23.85;;;15.82;;
50671;SDS011;46021;55.882;37.654;2023-07-28T03:29:40;21.98;;;14.10;;
50671;SDS011;46021;55.882;37.654;2023-07-28T03:32:08;24.50;;;15.50;;
50671;SDS011;46021;55.882;37.654;2023-07-28T03:34:34;23.23;;;14.88;;
50671;SDS011;46021;55.882;37.654;2023-07-28T03:37:04;23.00;;;14.85;;
50671;SDS011;46021;55.882;37.654;2023-07-28T03:39:32;20.27;;;14.20;;
50671;SDS011;46021;55.882;37.654;2023-07-28T03:42:00;19.02;;;12.73;;
50671;SDS011;46021;55.882;37.654;2023-07-28T03:44:28;21.58;;;13.00;;
50671;SDS011;46021;55.882;37.654;2023-07-28T03:46:55;23.73;;;14.38;;
50671;SDS011;46021;55.882;37.654;2023-07-28T03:49:22;20.17;;;14.07;;
50671;SDS011;46021;55.882;37.654;2023-07-28T03:51:49;24.05;;;15.15;;
50671;SDS011;46021;55.882;37.654;2023-07-28T03:54:17;26.73;;;14.55;;
50671;SDS011;46021;55.882;37.654;2023-07-28T03:56:44;22.00;;;14.50;;
50671;SDS011;46021;55.882;37.654;2023-07-28T03:59:12;25.15;;;16.67;;
50671;SDS011;46021;55.882;37.654;2023-07-28T04:01:39;39.85;;;17.08;;
50671;SDS011;46021;55.882;37.654;2023-07-28T04:04:06;24.70;;;15.57;;
50671;SDS011;46021;55.882;37.654;2023-07-28T04:06:40;23.80;;;16.52;;
50671;SDS011;46021;55.882;37.654;2023-07-28T04:09:08;20.00;;;14.18;;
50671;SDS011;46021;55.882;37.654;2023-07-28T04:11:35;19.77;;;12.82;;
50671;SDS011;46021;55.882;37.654;2023-07-28T04:14:02;20.90;;;14.35;;
50671;SDS011;46021;55.882;37.654;2023-07-28T04:16:31;22.58;;;14.50;;
50671;SDS011;46021;55.882;37.654;2023-07-28T04:18:58;21.45;;;13.57;;
50671;SDS011;46021;55.882;37.654;2023-07-28T04:23:52;22.35;;;13.13;;
50671;SDS011;46021;55.882;37.654;2023-07-28T04:26:19;28.15;;;15.80;;
50671;SDS011;46021;55.882;37.654;2023-07-28T04:28:52;30.70;;;17.80;;
50671;SDS011;46021;55.882;37.654;2023-07-28T04:31:19;31.83;;;18.25;;
50671;SDS011;46021;55.882;37.654;2023-07-28T04:33:57;28.63;;;16.93;;
50671;SDS011;46021;55.882;37.654;2023-07-28T04:36:35;24.13;;;17.00;;
50671;SDS011;46021;55.882;37.654;2023-07-28T04:39:02;29.70;;;19.48;;
50671;SDS011;46021;55.882;37.654;2023-07-28T04:41:29;26.13;;;17.80;;
50671;SDS011;46021;55.882;37.654;2023-07-28T04:43:57;23.00;;;15.82;;
50671;SDS011;46021;55.882;37.654;2023-07-28T04:46:27;22.48;;;15.68;;
50671;SDS011;46021;55.882;37.654;2023-07-28T04:48:56;25.67;;;15.63;;
50671;SDS011;46021;55.882;37.654;2023-07-28T04:52:03;24.52;;;14.95;;
50671;SDS011;46021;55.882;37.654;2023-07-28T04:54:49;24.70;;;15.65;;
50671;SDS011;46021;55.882;37.654;2023-07-28T04:57:16;21.60;;;15.27;;
50671;SDS011;46021;55.882;37.654;2023-07-28T04:59:45;21.63;;;14.68;;
50671;SDS011;46021;55.882;37.654;2023-07-28T05:02:12;22.40;;;14.80;;
50671;SDS011;46021;55.882;37.654;2023-07-28T05:04:41;22.42;;;14.20;;
50671;SDS011;46021;55.882;37.654;2023-07-28T05:07:08;21.73;;;15.18;;
50671;SDS011;46021;55.882;37.654;2023-07-28T05:09:35;21.20;;;14.27;;
50671;SDS011;46021;55.882;37.654;2023-07-28T05:12:02;19.33;;;13.68;;
50671;SDS011;46021;55.882;37.654;2023-07-28T05:14:37;19.23;;;13.93;;
50671;SDS011;46021;55.882;37.654;2023-07-28T05:17:04;20.25;;;15.27;;
50671;SDS011;46021;55.882;37.654;2023-07-28T05:19:53;19.63;;;14.07;;
50671;SDS011;46021;55.882;37.654;2023-07-28T05:22:34;18.45;;;13.60;;
50671;SDS011;46021;55.882;37.654;2023-07-28T05:25:01;17.73;;;13.70;;
50671;SDS011;46021;55.882;37.654;2023-07-28T05:27:30;18.55;;;12.43;;
50671;SDS011;46021;55.882;37.654;2023-07-28T05:29:57;16.23;;;11.70;;
50671;SDS011;46021;55.882;37.654;2023-07-28T05:32:24;18.10;;;13.02;;
50671;SDS011;46021;55.882;37.654;2023-07-28T05:35:16;14.27;;;11.23;;
50671;SDS011;46021;55.882;37.654;2023-07-28T05:37:43;19.70;;;12.20;;
50671;SDS011;46021;55.882;37.654;2023-07-28T05:40:10;19.98;;;12.73;;
50671;SDS011;46021;55.882;37.654;2023-07-28T05:42:38;16.65;;;12.27;;
50671;SDS011;46021;55.882;37.654;2023-07-28T05:47:33;17.65;;;11.82;;
50671;SDS011;46021;55.882;37.654;2023-07-28T05:50:00;20.33;;;13.23;;
50671;SDS011;46021;55.882;37.654;2023-07-28T05:52:30;16.48;;;11.77;;
50671;SDS011;46021;55.882;37.654;2023-07-28T05:54:57;17.85;;;10.73;;
50671;SDS011;46021;55.882;37.654;2023-07-28T05:57:23;17.35;;;11.77;;
50671;SDS011;46021;55.882;37.654;2023-07-28T05:59:51;17.17;;;11.77;;
50671;SDS011;46021;55.882;37.654;2023-07-28T06:02:18;23.23;;;13.35;;
50671;SDS011;46021;55.882;37.654;2023-07-28T06:04:49;15.35;;;10.50;;
50671;SDS011;46021;55.882;37.654;2023-07-28T06:07:17;13.07;;;10.13;;
50671;SDS011;46021;55.882;37.654;2023-07-28T06:09:45;15.75;;;10.30;;
50671;SDS011;46021;55.882;37.654;2023-07-28T06:12:13;17.20;;;10.45;;
50671;SDS011;46021;55.882;37.654;2023-07-28T06:14:41;18.02;;;10.07;;
50671;SDS011;46021;55.882;37.654;2023-07-28T06:17:10;16.20;;;10.13;;
50671;SDS011;46021;55.882;37.654;2023-07-28T06:19:37;18.65;;;10.05;;
50671;SDS011;46021;55.882;37.654;2023-07-28T06:22:04;15.27;;;9.52;;
50671;SDS011;46021;55.882;37.654;2023-07-28T06:24:36;13.80;;;8.82;;
50671;SDS011;46021;55.882;37.654;2023-07-28T06:27:05;14.43;;;8.73;;
50671;SDS011;46021;55.882;37.654;2023-07-28T06:29:36;13.15;;;8.10;;
50671;SDS011;46021;55.882;37.654;2023-07-28T06:32:03;14.65;;;8.90;;
50671;SDS011;46021;55.882;37.654;2023-07-28T06:34:31;12.10;;;7.82;;
50671;SDS011;46021;55.882;37.654;2023-07-28T06:36:58;14.10;;;8.52;;
50671;SDS011;46021;55.882;37.654;2023-07-28T06:39:25;12.30;;;8.25;;
50671;SDS011;46021;55.882;37.654;2023-07-28T06:41:52;13.45;;;8.77;;
50671;SDS011;46021;55.882;37.654;2023-07-28T06:44:22;11.13;;;7.68;;
50671;SDS011;46021;55.882;37.654;2023-07-28T06:46:49;10.82;;;7.28;;
50671;SDS011;46021;55.882;37.654;2023-07-28T06:49:16;17.90;;;8.57;;
50671;SDS011;46021;55.882;37.654;2023-07-28T06:51:43;17.27;;;9.00;;
50671;SDS011;46021;55.882;37.654;2023-07-28T06:54:10;13.45;;;7.80;;
50671;SDS011;46021;55.882;37.654;2023-07-28T06:56:38;12.82;;;7.28;;
50671;SDS011;46021;55.882;37.654;2023-07-28T06:59:05;13.30;;;8.15;;
50671;SDS011;46021;55.882;37.654;2023-07-28T07:04:01;13.23;;;7.60;;
50671;SDS011;46021;55.882;37.654;2023-07-28T07:06:30;15.80;;;7.20;;
50671;SDS011;46021;55.882;37.654;2023-07-28T07:08:57;11.88;;;6.82;;
50671;SDS011;46021;55.882;37.654;2023-07-28T07:11:24;14.93;;;6.57;;
50671;SDS011;46021;55.882;37.654;2023-07-28T07:13:51;11.50;;;5.72;;
50671;SDS011;46021;55.882;37.654;2023-07-28T07:16:18;12.48;;;6.97;;
50671;SDS011;46021;55.882;37.654;2023-07-28T07:18:47;12.90;;;6.75;;
50671;SDS011;46021;55.882;37.654;2023-07-28T07:21:14;16.30;;;6.75;;
50671;SDS011;46021;55.882;37.654;2023-07-28T07:23:41;12.82;;;7.78;;
50671;SDS011;46021;55.882;37.654;2023-07-28T07:26:24;11.68;;;6.70;;
50671;SDS011;46021;55.882;37.654;2023-07-28T07:28:51;13.25;;;7.57;;
50671;SDS011;46021;55.882;37.654;2023-07-28T07:31:18;10.30;;;7.50;;
50671;SDS011;46021;55.882;37.654;2023-07-28T07:33:47;12.52;;;7.00;;
50671;SDS011;46021;55.882;37.654;2023-07-28T07:36:14;12.82;;;7.85;;
50671;SDS011;46021;55.882;37.654;2023-07-28T07:38:42;14.93;;;8.32;;
50671;SDS011;46021;55.882;37.654;2023-07-28T07:41:11;10.48;;;7.65;;
50671;SDS011;46021;55.882;37.654;2023-07-28T07:43:41;14.18;;;7.60;;
50671;SDS011;46021;55.882;37.654;2023-07-28T07:46:08;11.13;;;7.93;;
50671;SDS011;46021;55.882;37.654;2023-07-28T07:51:04;15.25;;;7.70;;
50671;SDS011;46021;55.882;37.654;2023-07-28T07:53:31;15.00;;;8.60;;
50671;SDS011;46021;55.882;37.654;2023-07-28T07:55:58;15.25;;;7.90;;
50671;SDS011;46021;55.882;37.654;2023-07-28T07:58:25;13.52;;;8.05;;
50671;SDS011;46021;55.882;37.654;2023-07-28T08:00:53;13.05;;;7.07;;
50671;SDS011;46021;55.882;37.654;2023-07-28T08:03:20;13.95;;;7.85;;
50671;SDS011;46021;55.882;37.654;2023-07-28T08:05:47;11.48;;;6.40;;
50671;SDS011;46021;55.882;37.654;2023-07-28T08:08:16;11.60;;;7.05;;
50671;SDS011;46021;55.882;37.654;2023-07-28T08:10:45;14.23;;;7.03;;
50671;SDS011;46021;55.882;37.654;2023-07-28T08:15:39;16.02;;;8.15;;
50671;SDS011;46021;55.882;37.654;2023-07-28T08:18:06;13.20;;;7.55;;
50671;SDS011;46021;55.882;37.654;2023-07-28T08:20:33;17.08;;;8.10;;
50671;SDS011;46021;55.882;37.654;2023-07-28T08:23:00;18.10;;;7.68;;
50671;SDS011;46021;55.882;37.654;2023-07-28T08:25:29;15.02;;;6.78;;
50671;SDS011;46021;55.882;37.654;2023-07-28T08:27:56;13.73;;;7.30;;
50671;SDS011;46021;55.882;37.654;2023-07-28T08:30:23;10.70;;;6.57;;
50671;SDS011;46021;55.882;37.654;2023-07-28T08:32:50;13.50;;;7.13;;
50671;SDS011;46021;55.882;37.654;2023-07-28T08:35:17;12.45;;;7.03;;
50671;SDS011;46021;55.882;37.654;2023-07-28T08:37:44;10.27;;;7.00;;
50671;SDS011;46021;55.882;37.654;2023-07-28T08:40:11;9.82;;;6.07;;
50671;SDS011;46021;55.882;37.654;2023-07-28T08:42:40;11.05;;;7.28;;
50671;SDS011;46021;55.882;37.654;2023-07-28T08:45:08;18.85;;;6.65;;
50671;SDS011;46021;55.882;37.654;2023-07-28T08:47:35;13.75;;;5.68;;
50671;SDS011;46021;55.882;37.654;2023-07-28T08:50:03;9.75;;;5.70;;
50671;SDS011;46021;55.882;37.654;2023-07-28T08:52:32;13.00;;;6.57;;
50671;SDS011;46021;55.882;37.654;2023-07-28T08:54:59;12.13;;;5.70;;
50671;SDS011;46021;55.882;37.654;2023-07-28T08:57:26;14.52;;;5.85;;
50671;SDS011;46021;55.882;37.654;2023-07-28T08:59:55;9.70;;;5.18;;
50671;SDS011;46021;55.882;37.654;2023-07-28T09:02:22;11.15;;;5.97;;
50671;SDS011;46021;55.882;37.654;2023-07-28T09:04:49;9.95;;;5.50;;
50671;SDS011;46021;55.882;37.654;2023-07-28T09:07:16;9.68;;;5.10;;
50671;SDS011;46021;55.882;37.654;2023-07-28T09:09:43;10.35;;;5.25;;
50671;SDS011;46021;55.882;37.654;2023-07-28T09:12:11;10.48;;;5.65;;
50671;SDS011;46021;55.882;37.654;2023-07-28T09:17:07;7.95;;;5.13;;
50671;SDS011;46021;55.882;37.654;2023-07-28T09:19:48;8.70;;;5.38;;
50671;SDS011;46021;55.882;37.654;2023-07-28T09:22:17;6.78;;;4.43;;
50671;SDS011;46021;55.882;37.654;2023-07-28T09:24:44;8.55;;;5.43;;
50671;SDS011;46021;55.882;37.654;2023-07-28T09:27:18;10.48;;;5.15;;
50671;SDS011;46021;55.882;37.654;2023-07-28T09:29:48;9.93;;;4.90;;
50671;SDS011;46021;55.882;37.654;2023-07-28T09:32:18;8.13;;;4.53;;
50671;SDS011;46021;55.882;37.654;2023-07-28T09:37:32;7.90;;;5.20;;
50671;SDS011;46021;55.882;37.654;2023-07-28T09:40:00;10.50;;;5.47;;
50671;SDS011;46021;55.882;37.654;2023-07-28T09:42:29;8.02;;;5.07;;
50671;SDS011;46021;55.882;37.654;2023-07-28T09:44:57;11.70;;;5.28;;
50671;SDS011;46021;55.882;37.654;2023-07-28T09:47:26;8.80;;;5.53;;
50671;SDS011;46021;55.882;37.654;2023-07-28T09:49:57;9.32;;;5.60;;
50671;SDS011;46021;55.882;37.654;2023-07-28T09:52:30;10.35;;;5.82;;
50671;SDS011;46021;55.882;37.654;2023-07-28T09:55:02;11.50;;;5.60;;
50671;SDS011;46021;55.882;37.654;2023-07-28T09:57:36;10.50;;;6.10;;
50671;SDS011;46021;55.882;37.654;2023-07-28T10:00:06;14.02;;;5.95;;
50671;SDS011;46021;55.882;37.654;2023-07-28T10:02:39;9.60;;;5.35;;
50671;SDS011;46021;55.882;37.654;2023-07-28T10:05:07;9.13;;;5.88;;
50671;SDS011;46021;55.882;37.654;2023-07-28T10:07:36;9.27;;;5.72;;
50671;SDS011;46021;55.882;37.654;2023-07-28T10:10:06;9.48;;;5.93;;
50671;SDS011;46021;55.882;37.654;2023-07-28T10:12:39;8.55;;;5.85;;
50671;SDS011;46021;55.882;37.654;2023-07-28T10:15:11;9.20;;;6.25;;
50671;SDS011;46021;55.882;37.654;2023-07-28T10:17:44;7.28;;;5.30;;
50671;SDS011;46021;55.882;37.654;2023-07-28T10:20:26;22.63;;;12.10;;
50671;SDS011;46021;55.882;37.654;2023-07-28T10:22:54;9.90;;;6.90;;
50671;SDS011;46021;55.882;37.654;2023-07-28T10:25:31;12.52;;;7.80;;
50671;SDS011;46021;55.882;37.654;2023-07-28T10:28:00;11.48;;;6.25;;
50671;SDS011;46021;55.882;37.654;2023-07-28T10:30:28;8.98;;;6.00;;
50671;SDS011;46021;55.882;37.654;2023-07-28T10:32:56;11.45;;;6.47;;
50671;SDS011;46021;55.882;37.654;2023-07-28T10:35:25;13.80;;;6.07;;
50671;SDS011;46021;55.882;37.654;2023-07-28T10:37:54;9.90;;;6.28;;
50671;SDS011;46021;55.882;37.654;2023-07-28T10:40:23;11.65;;;6.35;;
50671;SDS011;46021;55.882;37.654;2023-07-28T10:42:51;10.40;;;6.28;;
50671;SDS011;46021;55.882;37.654;2023-07-28T10:45:19;10.32;;;6.15;;
50671;SDS011;46021;55.882;37.654;2023-07-28T10:47:46;10.57;;;6.57;;
50671;SDS011;46021;55.882;37.654;2023-07-28T10:50:15;8.88;;;6.55;;
50671;SDS011;46021;55.882;37.654;2023-07-28T10:52:43;13.38;;;7.30;;
50671;SDS011;46021;55.882;37.654;2023-07-28T10:55:14;9.40;;;6.43;;
50671;SDS011;46021;55.882;37.654;2023-07-28T10:57:41;9.77;;;6.43;;
50671;SDS011;46021;55.882;37.654;2023-07-28T11:00:09;12.13;;;7.85;;
50671;SDS011;46021;55.882;37.654;2023-07-28T11:02:38;11.38;;;7.90;;
50671;SDS011;46021;55.882;37.654;2023-07-28T11:05:09;14.43;;;8.88;;
50671;SDS011;46021;55.882;37.654;2023-07-28T11:07:41;11.95;;;7.53;;
50671;SDS011;46021;55.882;37.654;2023-07-28T11:10:09;11.27;;;7.55;;
50671;SDS011;46021;55.882;37.654;2023-07-28T11:12:40;11.65;;;8.40;;
50671;SDS011;46021;55.882;37.654;2023-07-28T11:15:09;13.65;;;8.02;;
50671;SDS011;46021;55.882;37.654;2023-07-28T11:17:37;11.50;;;7.57;;
50671;SDS011;46021;55.882;37.654;2023-07-28T11:20:06;11.68;;;7.70;;
50671;SDS011;46021;55.882;37.654;2023-07-28T11:22:43;16.48;;;9.35;;
50671;SDS011;46021;55.882;37.654;2023-07-28T11:25:11;14.35;;;9.18;;
50671;SDS011;46021;55.882;37.654;2023-07-28T11:27:38;10.75;;;8.32;;
50671;SDS011;46021;55.882;37.654;2023-07-28T11:30:07;12.65;;;9.70;;
50671;SDS011;46021;55.882;37.654;2023-07-28T11:32:35;13.57;;;10.00;;
50671;SDS011;46021;55.882;37.654;2023-07-28T11:35:03;15.25;;;9.63;;
50671;SDS011;46021;55.882;37.654;2023-07-28T11:37:32;14.13;;;8.93;;
50671;SDS011;46021;55.882;37.654;2023-07-28T11:40:01;12.25;;;8.25;;
50671;SDS011;46021;55.882;37.654;2023-07-28T11:42:32;11.10;;;8.30;;
50671;SDS011;46021;55.882;37.654;2023-07-28T11:45:01;13.32;;;8.13;;
50671;SDS011;46021;55.882;37.654;2023-07-28T11:47:29;10.63;;;7.18;;
50671;SDS011;46021;55.882;37.654;2023-07-28T11:49:56;13.18;;;8.70;;
50671;SDS011;46021;55.882;37.654;2023-07-28T11:52:29;13.68;;;8.50;;
50671;SDS011;46021;55.882;37.654;2023-07-28T11:54:57;14.65;;;7.90;;
50671;SDS011;46021;55.882;37.654;2023-07-28T11:57:26;12.50;;;8.13;;
50671;SDS011;46021;55.882;37.654;2023-07-28T11:59:56;8.60;;;6.93;;
50671;SDS011;46021;55.882;37.654;2023-07-28T12:04:54;9.93;;;7.18;;
50671;SDS011;46021;55.882;37.654;2023-07-28T12:07:27;10.80;;;7.47;;
50671;SDS011;46021;55.882;37.654;2023-07-28T12:09:55;13.73;;;7.72;;
50671;SDS011;46021;55.882;37.654;2023-07-28T12:12:25;10.18;;;7.25;;
50671;SDS011;46021;55.882;37.654;2023-07-28T12:14:55;12.07;;;8.43;;
50671;SDS011;46021;55.882;37.654;2023-07-28T12:17:25;11.95;;;7.55;;
50671;SDS011;46021;55.882;37.654;2023-07-28T12:20:01;11.23;;;7.35;;
50671;SDS011;46021;55.882;37.654;2023-07-28T12:22:36;11.00;;;8.43;;
50671;SDS011;46021;55.882;37.654;2023-07-28T12:25:04;10.52;;;7.18;;
50671;SDS011;46021;55.882;37.654;2023-07-28T12:27:32;10.82;;;7.50;;
50671;SDS011;46021;55.882;37.654;2023-07-28T12:30:00;13.00;;;7.22;;
50671;SDS011;46021;55.882;37.654;2023-07-28T12:32:29;12.43;;;7.35;;
50671;SDS011;46021;55.882;37.654;2023-07-28T12:34:56;12.10;;;8.02;;
50671;SDS011;46021;55.882;37.654;2023-07-28T12:37:23;14.05;;;9.40;;
50671;SDS011;46021;55.882;37.654;2023-07-28T12:42:18;8.30;;;5.90;;
50671;SDS011;46021;55.882;37.654;2023-07-28T12:44:47;9.50;;;5.50;;
50671;SDS011;46021;55.882;37.654;2023-07-28T12:47:14;12.02;;;5.95;;
50671;SDS011;46021;55.882;37.654;2023-07-28T12:49:41;6.70;;;4.20;;
50671;SDS011;46021;55.882;37.654;2023-07-28T12:52:08;8.63;;;4.05;;
50671;SDS011;46021;55.882;37.654;2023-07-28T12:54:35;7.53;;;3.70;;
50671;SDS011;46021;55.882;37.654;2023-07-28T12:57:02;5.65;;;3.92;;
50671;SDS011;46021;55.882;37.654;2023-07-28T13:01:58;7.82;;;3.65;;
50671;SDS011;46021;55.882;37.654;2023-07-28T13:04:25;7.82;;;3.50;;
50671;SDS011;46021;55.882;37.654;2023-07-28T13:06:52;5.22;;;3.20;;
50671;SDS011;46021;55.882;37.654;2023-07-28T13:11:46;5.75;;;3.17;;
50671;SDS011;46021;55.882;37.654;2023-07-28T13:14:13;8.02;;;3.28;;
50671;SDS011;46021;55.882;37.654;2023-07-28T13:16:40;3.88;;;2.85;;
50671;SDS011;46021;55.882;37.654;2023-07-28T13:19:09;10.55;;;3.15;;
50671;SDS011;46021;55.882;37.654;2023-07-28T13:21:36;6.72;;;3.13;;
50671;SDS011;46021;55.882;37.654;2023-07-28T13:24:03;4.85;;;3.13;;
50671;SDS011;46021;55.882;37.654;2023-07-28T13:26:30;6.50;;;3.15;;
50671;SDS011;46021;55.882;37.654;2023-07-28T13:28:57;5.95;;;3.05;;
50671;SDS011;46021;55.882;37.654;2023-07-28T13:31:27;6.13;;;3.50;;
50671;SDS011;46021;55.882;37.654;2023-07-28T13:36:22;5.18;;;3.20;;
50671;SDS011;46021;55.882;37.654;2023-07-28T13:38:49;4.50;;;2.63;;
50671;SDS011;46021;55.882;37.654;2023-07-28T13:41:16;5.05;;;3.00;;
50671;SDS011;46021;55.882;37.654;2023-07-28T13:43:43;4.72;;;3.17;;
50671;SDS011;46021;55.882;37.654;2023-07-28T13:46:10;4.82;;;2.70;;
50671;SDS011;46021;55.882;37.654;2023-07-28T13:48:38;4.32;;;2.95;;
50671;SDS011;46021;55.882;37.654;2023-07-28T13:51:05;3.85;;;2.55;;
50671;SDS011;46021;55.882;37.654;2023-07-28T13:53:34;3.80;;;2.65;;
50671;SDS011;46021;55.882;37.654;2023-07-28T13:56:01;5.35;;;2.38;;
50671;SDS011;46021;55.882;37.654;2023-07-28T13:58:28;4.00;;;2.55;;
50671;SDS011;46021;55.882;37.654;2023-07-28T14:00:55;5.55;;;2.40;;
50671;SDS011;46021;55.882;37.654;2023-07-28T14:03:22;7.40;;;2.58;;
50671;SDS011;46021;55.882;37.654;2023-07-28T14:05:52;5.93;;;2.58;;
50671;SDS011;46021;55.882;37.654;2023-07-28T14:08:20;4.68;;;2.80;;
50671;SDS011;46021;55.882;37.654;2023-07-28T14:10:48;7.03;;;2.85;;
50671;SDS011;46021;55.882;37.654;2023-07-28T14:13:15;4.60;;;2.50;;
50671;SDS011;46021;55.882;37.654;2023-07-28T14:15:42;8.50;;;2.70;;
50671;SDS011;46021;55.882;37.654;2023-07-28T14:18:09;5.07;;;3.28;;
50671;SDS011;46021;55.882;37.654;2023-07-28T14:20:36;7.22;;;4.10;;
50671;SDS011;46021;55.882;37.654;2023-07-28T14:23:08;9.63;;;3.65;;
50671;SDS011;46021;55.882;37.654;2023-07-28T14:25:48;5.80;;;3.15;;
50671;SDS011;46021;55.882;37.654;2023-07-28T14:28:15;5.72;;;3.33;;
50671;SDS011;46021;55.882;37.654;2023-07-28T14:30:43;8.23;;;3.15;;
50671;SDS011;46021;55.882;37.654;2023-07-28T14:33:12;6.25;;;2.95;;
50671;SDS011;46021;55.882;37.654;2023-07-28T14:35:40;5.88;;;3.70;;
50671;SDS011;46021;55.882;37.654;2023-07-28T14:38:07;5.70;;;3.15;;
50671;SDS011;46021;55.882;37.654;2023-07-28T14:40:35;5.28;;;3.00;;
50671;SDS011;46021;55.882;37.654;2023-07-28T14:43:03;4.78;;;2.70;;
50671;SDS011;46021;55.882;37.654;2023-07-28T14:45:30;5.88;;;2.83;;
50671;SDS011;46021;55.882;37.654;2023-07-28T14:47:57;6.10;;;2.80;;
50671;SDS011;46021;55.882;37.654;2023-07-28T14:50:25;4.13;;;2.58;;
50671;SDS011;46021;55.882;37.654;2023-07-28T14:52:53;7.25;;;3.38;;
50671;SDS011;46021;55.882;37.654;2023-07-28T14:55:20;8.15;;;3.47;;
50671;SDS011;46021;55.882;37.654;2023-07-28T14:57:47;5.30;;;3.10;;
50671;SDS011;46021;55.882;37.654;2023-07-28T15:00:15;9.18;;;3.33;;
50671;SDS011;46021;55.882;37.654;2023-07-28T15:02:43;6.72;;;3.38;;
50671;SDS011;46021;55.882;37.654;2023-07-28T15:05:10;5.20;;;2.65;;